Terminal Aerodrome Forecast
Issued by NWS

Home | Current Version | Previous Version | Text Only | Print | Product List | Glossary On
Versions: 1 2 3 4 5 6 7 8 9 10 11 12 13 14 15 16 17 18 19 20 21 22 23 24 25 26 27 28
032
FTUS42 KCAE 301740 AAB
TAFOGB
TAF AMD
KOGB 301740Z 3018/0118 18015G21KT P6SM SCT040
     FM302300 17013KT P6SM FEW200
     FM010500 17010KT P6SM BKN015
     FM010900 18009KT P6SM BKN008
     FM011500 21017G23KT P6SM BKN025=

USA.gov is the U.S. government's official web portal to all federal, state and local government web resources and services.